createdAt,value
2018-06-24T00:02:18.787Z,79.10
2018-06-24T00:04:46.909Z,79.10
2018-06-24T00:07:15.017Z,78.80
2018-06-24T00:09:43.174Z,79.00
2018-06-24T00:12:11.279Z,79.10
2018-06-24T00:14:39.401Z,79.00
2018-06-24T00:17:07.557Z,79.40
2018-06-24T00:19:35.668Z,79.30
2018-06-24T00:22:03.825Z,79.60
2018-06-24T00:24:32.247Z,79.70
2018-06-24T00:27:00.372Z,79.50
2018-06-24T00:29:28.496Z,79.00
2018-06-24T00:31:56.616Z,78.80
2018-06-24T00:34:25.174Z,79.00
2018-06-24T00:36:53.276Z,79.90
2018-06-24T00:39:21.403Z,80.00
2018-06-24T00:41:49.528Z,79.30
2018-06-24T00:44:18.617Z,79.90
2018-06-24T00:46:47.397Z,80.30
2018-06-24T00:49:15.508Z,80.90
2018-06-24T00:51:43.636Z,81.10
2018-06-24T00:54:11.760Z,80.60
2018-06-24T00:56:39.885Z,80.20
2018-06-24T00:59:13.836Z,79.90
2018-06-24T01:01:41.956Z,80.50
2018-06-24T01:04:10.077Z,80.40
2018-06-24T01:06:38.716Z,80.50
2018-06-24T01:09:07.112Z,80.80
2018-06-24T01:11:35.230Z,80.90
2018-06-24T01:14:04.149Z,80.70
2018-06-24T01:16:31.497Z,80.90
2018-06-24T01:18:59.604Z,81.20
2018-06-24T01:21:27.732Z,82.20
2018-06-24T01:23:55.853Z,83.60
2018-06-24T01:26:23.964Z,83.30
2018-06-24T01:28:52.183Z,83.30
2018-06-24T01:31:20.304Z,83.00
2018-06-24T01:33:48.412Z,82.80
2018-06-24T01:36:16.537Z,82.90
2018-06-24T01:38:44.648Z,83.00
2018-06-24T01:41:12.765Z,83.20
2018-06-24T01:43:40.904Z,83.20
2018-06-24T01:46:09.929Z,83.70
2018-06-24T01:48:38.042Z,84.20
2018-06-24T01:51:06.657Z,84.20
2018-06-24T01:53:34.765Z,84.10
2018-06-24T01:56:02.876Z,84.10
2018-06-24T01:58:31.008Z,84.40
2018-06-24T02:00:59.120Z,84.40
2018-06-24T02:03:27.233Z,84.10
2018-06-24T02:05:55.361Z,84.60
2018-06-24T02:08:23.482Z,84.30
2018-06-24T02:10:51.596Z,84.30
2018-06-24T02:13:19.730Z,84.10
2018-06-24T02:15:47.860Z,83.90
2018-06-24T02:18:16.168Z,83.60
2018-06-24T02:20:44.302Z,83.70
2018-06-24T02:23:12.410Z,83.70
2018-06-24T02:25:40.529Z,83.70
2018-06-24T02:28:08.692Z,83.70
2018-06-24T02:30:36.830Z,84.00
2018-06-24T02:33:04.947Z,84.10
2018-06-24T02:35:33.134Z,84.20
2018-06-24T02:38:01.298Z,84.50
2018-06-24T02:40:29.405Z,84.40
2018-06-24T02:42:57.528Z,84.80
2018-06-24T02:45:25.661Z,85.00
2018-06-24T02:47:54.445Z,85.20
2018-06-24T02:50:22.586Z,86.30
2018-06-24T02:52:50.701Z,86.50
2018-06-24T02:55:18.804Z,86.30
2018-06-24T02:57:47.389Z,86.50
2018-06-24T03:00:15.527Z,87.00
2018-06-24T03:02:43.645Z,86.80
2018-06-24T03:05:11.855Z,86.50
2018-06-24T03:07:40.185Z,86.40
2018-06-24T03:10:08.348Z,86.70
2018-06-24T03:12:36.493Z,87.00
2018-06-24T03:15:04.630Z,87.40
2018-06-24T03:17:32.741Z,88.20
2018-06-24T03:20:00.905Z,88.50
2018-06-24T03:22:29.044Z,88.20
2018-06-24T03:24:57.152Z,87.70
2018-06-24T03:27:25.278Z,87.30
2018-06-24T03:29:53.391Z,87.10
2018-06-24T03:32:21.514Z,86.90
2018-06-24T03:34:49.653Z,87.50
2018-06-24T03:37:17.779Z,87.90
2018-06-24T03:39:45.900Z,87.60
2018-06-24T03:42:14.952Z,87.50
2018-06-24T03:44:43.066Z,87.30
2018-06-24T03:47:11.180Z,87.10
2018-06-24T03:49:40.588Z,87.00
2018-06-24T03:52:09.449Z,87.30
2018-06-24T03:54:37.609Z,87.10
2018-06-24T03:57:05.953Z,87.20
2018-06-24T03:59:34.152Z,86.80
2018-06-24T04:02:02.277Z,87.80
2018-06-24T04:04:30.695Z,87.50
2018-06-24T04:06:58.814Z,89.00
2018-06-24T04:09:26.928Z,89.40
2018-06-24T04:11:55.077Z,89.20
2018-06-24T04:14:23.196Z,88.80
2018-06-24T04:16:51.312Z,88.90
2018-06-24T04:19:19.458Z,89.80
2018-06-24T04:21:47.576Z,90.20
2018-06-24T04:24:15.696Z,90.00
2018-06-24T04:26:43.965Z,89.60
2018-06-24T04:29:12.104Z,89.80
2018-06-24T04:31:40.335Z,88.90
2018-06-24T04:34:08.445Z,89.50
2018-06-24T04:36:36.563Z,89.60
2018-06-24T04:39:07.290Z,89.40
2018-06-24T04:41:35.434Z,89.20
2018-06-24T04:44:03.663Z,89.40
2018-06-24T04:46:32.074Z,89.40
2018-06-24T04:49:00.263Z,90.00
2018-06-24T04:51:28.711Z,89.40
2018-06-24T04:53:57.025Z,88.40
2018-06-24T04:56:25.153Z,87.70
2018-06-24T04:58:53.308Z,87.40
2018-06-24T05:01:21.520Z,86.90
2018-06-24T05:03:50.520Z,86.50
2018-06-24T05:06:18.645Z,86.40
2018-06-24T05:08:47.260Z,86.10
2018-06-24T05:11:15.371Z,85.40
2018-06-24T05:13:43.472Z,84.80
2018-06-24T05:16:11.797Z,84.70
2018-06-24T05:18:39.909Z,84.80
2018-06-24T05:21:08.399Z,84.40
2018-06-24T05:23:36.509Z,84.70
2018-06-24T05:26:04.640Z,85.80
2018-06-24T05:28:32.760Z,85.30
2018-06-24T05:31:01.966Z,84.50
2018-06-24T05:33:30.141Z,83.90
2018-06-24T05:35:58.282Z,83.30
2018-06-24T05:38:26.425Z,82.50
2018-06-24T05:40:54.539Z,80.40
2018-06-24T05:43:22.691Z,80.90
2018-06-24T05:45:50.825Z,82.00
2018-06-24T05:48:18.940Z,82.80
2018-06-24T05:50:47.065Z,81.60
2018-06-24T05:53:15.648Z,80.50
2018-06-24T05:55:43.781Z,80.20
2018-06-24T05:58:11.921Z,81.00
2018-06-24T06:00:40.045Z,79.40
2018-06-24T06:03:08.168Z,78.80
2018-06-24T06:05:36.279Z,78.90
2018-06-24T06:08:04.853Z,78.40
2018-06-24T06:10:32.970Z,78.50
2018-06-24T06:13:01.080Z,78.30
2018-06-24T06:15:29.817Z,77.80
2018-06-24T06:17:57.924Z,76.90
2018-06-24T06:20:26.046Z,76.90
2018-06-24T06:22:54.874Z,76.00
2018-06-24T06:25:25.753Z,75.60
2018-06-24T06:30:21.760Z,74.90
2018-06-24T06:32:50.839Z,75.80
2018-06-24T06:35:19.023Z,76.20
2018-06-24T06:37:47.145Z,75.40
2018-06-24T06:40:15.260Z,75.30
2018-06-24T06:42:43.413Z,74.20
2018-06-24T06:45:11.565Z,75.70
2018-06-24T06:47:39.761Z,74.40
2018-06-24T06:50:07.900Z,73.70
2018-06-24T06:52:36.689Z,73.70
2018-06-24T06:55:05.660Z,72.10
2018-06-24T06:57:34.089Z,72.30
2018-06-24T07:00:02.286Z,72.70
2018-06-24T07:02:30.337Z,72.70
2018-06-24T07:04:58.476Z,73.90
2018-06-24T07:07:26.675Z,74.40
2018-06-24T07:09:54.844Z,75.00
2018-06-24T07:12:23.781Z,73.50
2018-06-24T07:14:51.903Z,73.90
2018-06-24T07:17:20.018Z,73.00
2018-06-24T07:19:48.223Z,72.70
2018-06-24T07:22:16.325Z,73.20
2018-06-24T07:24:44.464Z,72.70
2018-06-24T07:27:12.903Z,70.00
2018-06-24T07:29:41.110Z,70.90
2018-06-24T07:32:09.239Z,70.20
2018-06-24T07:34:37.341Z,70.50
2018-06-24T07:37:05.488Z,70.60
2018-06-24T07:39:33.623Z,71.70
2018-06-24T07:42:01.809Z,71.80
2018-06-24T07:44:29.931Z,73.70
2018-06-24T07:46:58.052Z,73.60
2018-06-24T07:49:26.188Z,73.50
2018-06-24T07:51:54.332Z,73.20
2018-06-24T07:54:22.448Z,73.20
2018-06-24T07:56:51.139Z,75.00
2018-06-24T07:59:19.252Z,74.50
2018-06-24T08:01:47.376Z,73.30
2018-06-24T08:06:50.033Z,72.30
2018-06-24T08:09:18.197Z,71.40
2018-06-24T08:11:46.321Z,70.70
2018-06-24T08:14:14.468Z,71.30
2018-06-24T08:16:42.594Z,71.70
2018-06-24T08:19:10.837Z,70.90
2018-06-24T08:21:39.008Z,70.60
2018-06-24T08:24:07.702Z,70.70
2018-06-24T08:26:35.838Z,69.30
2018-06-24T08:29:04.072Z,69.40
2018-06-24T08:31:32.315Z,68.20
2018-06-24T08:34:00.381Z,65.90
2018-06-24T08:36:28.537Z,65.70
2018-06-24T08:38:56.726Z,67.40
2018-06-24T08:41:24.836Z,68.00
2018-06-24T08:43:52.965Z,67.30
2018-06-24T08:46:21.117Z,66.30
2018-06-24T08:48:49.490Z,64.40
2018-06-24T08:51:17.916Z,63.60
2018-06-24T08:53:46.553Z,63.90
2018-06-24T08:56:14.903Z,61.40
2018-06-24T08:58:45.063Z,61.40
2018-06-24T09:01:13.565Z,61.00
2018-06-24T09:03:42.242Z,58.60
2018-06-24T09:06:10.814Z,60.20
2018-06-24T09:08:39.379Z,59.70
2018-06-24T09:11:08.180Z,57.40
2018-06-24T09:13:37.019Z,53.60
2018-06-24T09:16:06.022Z,54.40
2018-06-24T09:18:34.606Z,55.00
2018-06-24T09:21:03.146Z,56.80
2018-06-24T09:23:31.660Z,57.90
2018-06-24T09:26:00.185Z,61.40
2018-06-24T09:28:28.735Z,62.50
2018-06-24T09:30:57.262Z,62.90
2018-06-24T09:33:25.798Z,61.40
2018-06-24T09:35:54.676Z,60.20
2018-06-24T09:38:23.143Z,61.20
2018-06-24T09:40:51.767Z,59.20
2018-06-24T09:43:20.203Z,58.00
2018-06-24T09:45:48.804Z,55.40
2018-06-24T09:48:18.276Z,55.10
2018-06-24T09:50:47.014Z,54.30
2018-06-24T09:53:16.103Z,52.00
2018-06-24T09:55:44.683Z,52.10
2018-06-24T09:58:13.763Z,52.50
2018-06-24T10:00:42.811Z,54.00
2018-06-24T10:03:11.261Z,54.00
2018-06-24T10:05:39.858Z,56.00
2018-06-24T10:08:08.363Z,55.00
2018-06-24T10:10:36.934Z,55.60
2018-06-24T10:13:05.505Z,54.80
2018-06-24T10:15:34.120Z,54.90
2018-06-24T10:18:02.557Z,56.10
2018-06-24T10:20:31.024Z,55.60
2018-06-24T10:22:59.422Z,55.20
2018-06-24T10:25:27.766Z,54.60
2018-06-24T10:27:56.084Z,55.40
2018-06-24T10:30:24.520Z,55.10
2018-06-24T10:32:53.198Z,54.30
2018-06-24T10:35:21.627Z,54.60
2018-06-24T10:37:50.230Z,53.80
2018-06-24T10:40:18.672Z,55.60
2018-06-24T10:42:47.132Z,57.10
2018-06-24T10:45:15.585Z,57.60
2018-06-24T10:47:44.020Z,57.50
2018-06-24T10:50:12.400Z,58.30
2018-06-24T10:52:40.893Z,57.90
2018-06-24T10:55:09.428Z,59.20
2018-06-24T10:57:37.994Z,59.30
2018-06-24T11:00:06.552Z,60.20
2018-06-24T11:02:35.523Z,59.10
2018-06-24T11:05:04.066Z,57.80
2018-06-24T11:07:32.467Z,57.20
2018-06-24T11:10:01.017Z,56.70
2018-06-24T11:12:29.412Z,56.50
2018-06-24T11:14:58.032Z,53.70
2018-06-24T11:17:26.538Z,52.40
2018-06-24T11:19:55.604Z,48.70
2018-06-24T11:22:24.113Z,47.90
2018-06-24T11:24:52.658Z,48.60
2018-06-24T11:27:21.250Z,49.70
2018-06-24T11:29:49.716Z,49.90
2018-06-24T11:32:18.203Z,52.50
2018-06-24T11:34:46.595Z,53.30
2018-06-24T19:07:39.713Z,61.90
2018-06-24T19:10:07.937Z,61.60
2018-06-24T19:12:36.104Z,62.10
2018-06-24T19:15:04.456Z,62.80
2018-06-24T19:17:32.682Z,63.20
2018-06-24T19:20:00.929Z,63.30
2018-06-24T19:22:31.209Z,63.30
2018-06-24T19:24:59.436Z,64.20
2018-06-24T19:27:30.815Z,64.20
2018-06-24T19:29:59.864Z,64.80
2018-06-24T19:32:31.125Z,65.40
2018-06-24T19:35:00.156Z,65.50
2018-06-24T19:37:28.401Z,65.70
2018-06-24T19:42:25.565Z,65.30
2018-06-24T19:44:53.715Z,65.50
2018-06-24T19:47:22.175Z,66.60
2018-06-24T19:49:51.423Z,66.20
2018-06-24T19:52:19.573Z,66.40
2018-06-24T19:54:47.748Z,65.90
2018-06-24T19:57:16.280Z,66.10
2018-06-24T20:02:12.618Z,66.20
2018-06-24T20:04:40.879Z,66.00
2018-06-24T20:07:09.142Z,65.90
2018-06-24T20:09:38.181Z,66.90
2018-06-24T20:12:06.525Z,66.70
2018-06-24T20:14:36.739Z,66.10
2018-06-24T20:19:33.069Z,67.10
2018-06-24T20:22:02.761Z,67.30
2018-06-24T20:24:30.949Z,67.30
2018-06-24T20:27:00.180Z,68.20
2018-06-24T20:29:28.421Z,68.50
2018-06-24T20:31:57.301Z,68.10
2018-06-24T20:34:25.559Z,67.80
2018-06-24T20:36:54.796Z,68.30
2018-06-24T20:39:22.974Z,69.00
2018-06-24T20:41:54.646Z,68.80
2018-06-24T20:44:22.909Z,69.40
2018-06-24T20:46:51.112Z,69.50
2018-06-24T20:49:19.249Z,68.60
2018-06-24T20:51:51.473Z,69.30
2018-06-24T20:54:19.617Z,68.90
2018-06-24T20:59:15.758Z,68.90
2018-06-24T21:01:44.061Z,68.70
2018-06-24T21:04:17.477Z,68.90
2018-06-24T21:06:46.713Z,69.00
2018-06-24T21:09:15.921Z,69.10
2018-06-24T21:11:45.279Z,69.60
2018-06-24T21:14:13.488Z,69.60
2018-06-24T21:16:42.678Z,70.30
2018-06-24T21:19:14.953Z,70.50
2018-06-24T21:21:44.231Z,70.60
2018-06-24T21:24:12.459Z,70.70
2018-06-24T21:26:40.609Z,70.80
2018-06-24T21:29:08.779Z,71.70
2018-06-24T21:31:36.948Z,72.50
2018-06-24T21:34:06.043Z,71.50
2018-06-24T21:36:35.321Z,71.80
2018-06-24T21:39:05.245Z,72.20
2018-06-24T21:41:34.444Z,72.20
2018-06-24T21:44:03.677Z,72.60
2018-06-24T21:48:59.784Z,73.70
2018-06-24T21:51:27.988Z,74.10
2018-06-24T21:53:56.141Z,73.60
2018-06-24T21:56:25.505Z,73.50
2018-06-24T21:58:53.712Z,73.90
2018-06-24T22:01:21.905Z,73.00
2018-06-24T22:03:50.881Z,72.90
2018-06-24T22:06:19.065Z,72.50
2018-06-24T22:08:47.229Z,73.00
2018-06-24T22:11:15.509Z,73.20
2018-06-24T22:13:45.813Z,73.00
2018-06-24T22:16:15.061Z,73.40
2018-06-24T22:18:43.205Z,73.40
2018-06-24T22:21:11.401Z,74.00
2018-06-24T22:26:07.623Z,73.70
2018-06-24T22:28:35.833Z,73.70
2018-06-24T22:33:33.996Z,74.50
2018-06-24T22:36:02.565Z,74.40
2018-06-24T22:38:30.702Z,75.10
2018-06-24T22:40:58.924Z,76.20
2018-06-24T22:43:27.608Z,76.50
2018-06-24T22:45:55.781Z,76.80
2018-06-24T22:48:25.049Z,76.30
2018-06-24T22:50:53.374Z,77.70
2018-06-24T22:53:21.503Z,77.70
2018-06-24T22:55:49.662Z,78.50
2018-06-24T22:58:17.872Z,78.50
2018-06-24T23:00:50.059Z,78.40
2018-06-24T23:03:18.199Z,78.00
2018-06-24T23:05:46.508Z,79.10
2018-06-24T23:08:15.721Z,79.40
2018-06-24T23:13:11.805Z,79.70
2018-06-24T23:15:40.577Z,79.90
2018-06-24T23:18:08.789Z,79.40
2018-06-24T23:20:36.980Z,79.90
2018-06-24T23:23:07.221Z,79.90
2018-06-24T23:28:05.576Z,79.70
2018-06-24T23:30:33.814Z,80.30
2018-06-24T23:33:02.047Z,80.50
2018-06-24T23:35:30.229Z,79.50
2018-06-24T23:40:33.134Z,79.40
2018-06-24T23:43:03.339Z,78.60
2018-06-24T23:45:31.520Z,78.80
2018-06-24T23:47:59.673Z,78.00
2018-06-24T23:50:27.960Z,77.70
2018-06-24T23:52:56.331Z,78.70
2018-06-24T23:55:26.383Z,78.60
